createdAt,value
2022-07-27T00:00:33.849Z,41.23
2022-07-27T00:03:09.599Z,41.26
2022-07-27T00:05:42.662Z,41.55
2022-07-27T00:08:15.362Z,41.58
2022-07-27T00:10:48.638Z,41.44
2022-07-27T00:13:21.615Z,41.17
2022-07-27T00:15:55.170Z,41.22
2022-07-27T00:18:28.175Z,41.18
2022-07-27T00:21:00.933Z,41.15
2022-07-27T00:23:34.280Z,41.07
2022-07-27T00:26:07.089Z,40.86
2022-07-27T00:28:39.596Z,41.09
2022-07-27T00:31:12.533Z,41.24
2022-07-27T00:33:45.160Z,41.23
2022-07-27T00:36:17.866Z,41.23
2022-07-27T00:38:50.250Z,41.33
2022-07-27T00:41:22.911Z,41.44
2022-07-27T00:43:57.214Z,41.64
2022-07-27T00:46:30.926Z,41.63
2022-07-27T00:49:03.557Z,41.59
2022-07-27T00:51:36.316Z,41.83
2022-07-27T00:54:08.971Z,41.98
2022-07-27T00:56:41.877Z,41.90
2022-07-27T00:59:16.610Z,41.90
2022-07-27T01:01:49.425Z,41.80
2022-07-27T01:04:22.006Z,41.86
2022-07-27T01:06:56.228Z,41.94
2022-07-27T01:09:46.504Z,42.25
2022-07-27T01:12:20.925Z,42.04
2022-07-27T01:14:55.471Z,41.88
2022-07-27T01:17:32.074Z,43.00
2022-07-27T01:20:05.776Z,42.85
2022-07-27T01:22:39.583Z,43.43
2022-07-27T01:25:12.792Z,43.72
2022-07-27T01:27:46.299Z,43.87
2022-07-27T01:30:30.784Z,43.81
2022-07-27T01:33:08.709Z,43.95
2022-07-27T01:35:42.770Z,43.73
2022-07-27T01:38:16.044Z,44.31
2022-07-27T01:40:51.015Z,43.80
2022-07-27T01:43:24.049Z,44.37
2022-07-27T01:45:56.871Z,44.21
2022-07-27T01:48:30.112Z,44.32
2022-07-27T01:51:02.906Z,44.55
2022-07-27T01:53:35.585Z,44.49
2022-07-27T01:56:14.394Z,44.42
2022-07-27T01:58:47.602Z,44.42
2022-07-27T02:01:20.247Z,44.40
2022-07-27T02:03:53.280Z,44.50
2022-07-27T02:06:25.974Z,44.79
2022-07-27T02:08:59.069Z,44.82
2022-07-27T02:11:49.429Z,45.03
2022-07-27T02:14:22.698Z,45.14
2022-07-27T02:16:55.618Z,44.83
2022-07-27T02:19:28.594Z,44.60
2022-07-27T02:22:01.300Z,44.85
2022-07-27T02:24:34.094Z,45.10
2022-07-27T02:27:06.864Z,45.44
2022-07-27T02:29:39.622Z,45.40
2022-07-27T02:32:16.805Z,45.40
2022-07-27T02:34:51.011Z,45.29
2022-07-27T02:37:23.667Z,45.10
2022-07-27T02:39:58.454Z,45.10
2022-07-27T02:42:40.174Z,45.25
2022-07-27T02:45:17.332Z,45.41
2022-07-27T02:47:52.540Z,45.27
2022-07-27T02:50:25.916Z,46.15
2022-07-27T02:53:02.326Z,46.28
2022-07-27T02:55:50.066Z,46.23
2022-07-27T02:58:24.576Z,46.26
2022-07-27T03:00:59.077Z,46.92
2022-07-27T03:03:35.916Z,46.55
2022-07-27T03:06:12.034Z,47.25
2022-07-27T03:08:45.401Z,47.40
2022-07-27T03:11:19.519Z,47.84
2022-07-27T03:13:56.049Z,47.90
2022-07-27T03:16:28.957Z,48.38
2022-07-27T03:19:04.985Z,48.45
2022-07-27T03:21:38.113Z,48.77
2022-07-27T03:24:11.414Z,49.08
2022-07-27T03:26:47.082Z,49.21
2022-07-27T03:29:19.878Z,49.15
2022-07-27T03:31:52.926Z,49.09
2022-07-27T03:34:26.469Z,48.68
2022-07-27T03:36:59.680Z,48.91
2022-07-27T03:39:35.407Z,48.79
2022-07-27T03:42:09.069Z,49.15
2022-07-27T03:44:42.217Z,49.10
2022-07-27T03:47:19.093Z,49.08
2022-07-27T03:49:53.611Z,48.69
2022-07-27T03:52:29.990Z,48.87
2022-07-27T03:55:05.713Z,48.58
2022-07-27T03:57:41.548Z,48.81
2022-07-27T04:00:23.440Z,48.61
2022-07-27T04:02:56.322Z,48.80
2022-07-27T04:05:32.182Z,48.94
2022-07-27T04:08:08.359Z,48.86
2022-07-27T04:10:43.024Z,48.87
2022-07-27T04:13:23.012Z,48.58
2022-07-27T04:15:58.203Z,48.67
2022-07-27T04:18:31.131Z,48.98
2022-07-27T04:21:06.885Z,48.96
2022-07-27T04:23:41.253Z,49.10
2022-07-27T04:26:13.878Z,48.94
2022-07-27T04:28:47.375Z,49.01
2022-07-27T04:31:19.925Z,48.81
2022-07-27T04:33:54.303Z,48.70
2022-07-27T04:36:28.036Z,48.55
2022-07-27T04:39:03.262Z,48.50
2022-07-27T04:41:37.721Z,48.31
2022-07-27T04:44:12.664Z,48.27
2022-07-27T04:46:46.271Z,48.17
2022-07-27T04:49:21.534Z,48.04
2022-07-27T04:51:55.881Z,48.08
2022-07-27T04:54:30.076Z,47.78
2022-07-27T04:57:03.260Z,47.69
2022-07-27T04:59:37.461Z,47.75
2022-07-27T05:02:14.314Z,47.18
2022-07-27T05:04:46.841Z,47.40
2022-07-27T05:07:25.216Z,47.13
2022-07-27T05:09:57.993Z,47.21
2022-07-27T05:12:31.037Z,47.30
2022-07-27T05:15:04.016Z,47.32
2022-07-27T05:17:40.378Z,47.10
2022-07-27T05:20:16.326Z,47.00
2022-07-27T05:22:52.981Z,46.95
2022-07-27T05:25:26.198Z,46.73
2022-07-27T05:27:58.890Z,46.57
2022-07-27T05:30:31.923Z,46.50
2022-07-27T05:33:11.326Z,46.53
2022-07-27T05:35:44.290Z,46.13
2022-07-27T05:38:18.121Z,46.34
2022-07-27T05:40:51.376Z,46.15
2022-07-27T05:43:26.485Z,46.00
2022-07-27T05:46:02.124Z,45.97
2022-07-27T05:48:35.534Z,46.01
2022-07-27T05:51:09.303Z,45.66
2022-07-27T05:53:43.154Z,45.48
2022-07-27T05:56:17.831Z,45.11
2022-07-27T05:58:51.382Z,45.00
2022-07-27T06:01:25.139Z,44.91
2022-07-27T06:04:02.236Z,44.64
2022-07-27T06:06:53.340Z,44.38
2022-07-27T06:09:25.717Z,44.01
2022-07-27T06:11:59.014Z,43.79
2022-07-27T06:14:37.847Z,43.48
2022-07-27T06:17:14.296Z,43.41
2022-07-27T06:19:47.264Z,43.28
2022-07-27T06:22:23.506Z,43.22
2022-07-27T06:24:56.544Z,42.70
2022-07-27T06:27:34.885Z,42.57
2022-07-27T06:30:20.577Z,42.36
2022-07-27T06:32:53.375Z,41.81
2022-07-27T06:35:26.229Z,41.80
2022-07-27T06:38:01.014Z,41.37
2022-07-27T06:40:36.899Z,41.10
2022-07-27T06:43:10.484Z,40.95
2022-07-27T06:45:44.327Z,40.64
2022-07-27T06:48:17.643Z,40.76
2022-07-27T06:50:52.422Z,40.55
2022-07-27T06:53:25.372Z,40.45
2022-07-27T06:56:00.124Z,40.32
2022-07-27T06:58:33.219Z,40.10
2022-07-27T07:01:06.688Z,40.00
2022-07-27T07:03:40.747Z,39.82
2022-07-27T07:06:13.372Z,39.88
2022-07-27T07:08:46.950Z,39.65
2022-07-27T07:11:19.803Z,39.51
2022-07-27T07:13:52.500Z,39.34
2022-07-27T07:16:26.097Z,39.03
2022-07-27T07:19:00.444Z,38.71
2022-07-27T07:21:32.929Z,38.64
2022-07-27T07:24:06.823Z,38.70
2022-07-27T07:26:42.308Z,38.60
2022-07-27T07:29:15.501Z,38.23
2022-07-27T07:31:48.702Z,38.23
2022-07-27T07:34:22.756Z,37.99
2022-07-27T07:36:56.051Z,37.79
2022-07-27T07:39:31.567Z,37.55
2022-07-27T07:42:04.576Z,37.67
2022-07-27T07:44:44.034Z,37.60
2022-07-27T07:47:16.856Z,37.04
2022-07-27T07:49:49.777Z,37.13
2022-07-27T07:52:24.704Z,36.99
2022-07-27T07:54:57.061Z,36.96
2022-07-27T07:57:31.003Z,36.58
2022-07-27T08:00:08.404Z,36.55
2022-07-27T08:02:53.135Z,36.33
2022-07-27T08:05:29.068Z,36.31
2022-07-27T08:08:02.254Z,35.99
2022-07-27T08:10:36.530Z,35.92
2022-07-27T08:13:24.910Z,35.50
2022-07-27T08:15:58.766Z,35.48
2022-07-27T08:18:34.649Z,35.21
2022-07-27T08:21:12.568Z,34.59
2022-07-27T08:23:50.517Z,35.03
2022-07-27T08:26:26.085Z,34.78
2022-07-27T08:29:13.100Z,34.79
2022-07-27T08:31:52.289Z,34.36
2022-07-27T08:34:26.744Z,33.50
2022-07-27T08:36:59.950Z,33.72
2022-07-27T08:42:31.884Z,33.49
2022-07-27T08:45:05.517Z,33.77
2022-07-27T08:47:40.920Z,33.46
2022-07-27T08:50:24.883Z,33.52
2022-07-27T08:53:04.422Z,33.02
2022-07-27T08:55:41.990Z,32.98
2022-07-27T08:58:13.293Z,32.86
2022-07-27T09:00:50.044Z,32.81
2022-07-27T09:03:25.670Z,32.83
2022-07-27T09:05:59.166Z,32.62
2022-07-27T09:08:37.363Z,31.72
2022-07-27T09:11:17.659Z,31.69
2022-07-27T09:13:52.785Z,31.49
2022-07-27T09:17:14.981Z,31.49
2022-07-27T09:19:26.651Z,31.39
2022-07-27T09:22:01.309Z,31.49
2022-07-27T09:24:46.726Z,31.50
2022-07-27T09:27:35.935Z,30.79
2022-07-27T09:30:14.319Z,30.72
2022-07-27T09:33:03.400Z,30.76
2022-07-27T09:35:39.222Z,30.42
2022-07-27T09:38:24.809Z,30.22
2022-07-27T09:41:04.456Z,30.12
2022-07-27T09:44:29.853Z,29.87
2022-07-27T09:46:46.874Z,29.22
2022-07-27T09:49:36.011Z,29.81
2022-07-27T09:52:10.343Z,29.51
2022-07-27T09:54:50.048Z,29.53
2022-07-27T09:57:23.053Z,28.83
2022-07-27T10:00:14.992Z,28.84
2022-07-27T10:02:53.619Z,28.51
2022-07-27T10:05:31.819Z,28.64
2022-07-27T10:08:04.498Z,27.85
2022-07-27T10:10:37.682Z,27.85
2022-07-27T10:13:12.464Z,28.10
2022-07-27T10:15:48.874Z,26.87
2022-07-27T10:18:29.227Z,26.35
2022-07-27T10:21:09.106Z,25.71
2022-07-27T10:23:55.066Z,25.76
2022-07-27T10:26:35.017Z,25.91
2022-07-27T10:29:18.312Z,25.99
2022-07-27T10:32:02.088Z,25.05
2022-07-27T10:34:50.905Z,24.97
2022-07-27T10:37:28.262Z,25.82
2022-07-27T10:40:19.869Z,25.81
2022-07-27T10:42:54.711Z,25.20
2022-07-27T10:46:00.354Z,25.17
2022-07-27T10:48:48.307Z,25.12
2022-07-27T10:51:37.918Z,25.43
2022-07-27T10:54:23.731Z,25.34
2022-07-27T10:56:59.264Z,25.54
2022-07-27T11:00:10.160Z,25.30
2022-07-27T11:02:46.602Z,24.65
2022-07-27T11:05:58.597Z,25.08
2022-07-27T11:08:36.099Z,25.03
2022-07-27T11:11:07.780Z,25.02
2022-07-27T11:13:40.300Z,24.97
2022-07-27T11:16:24.327Z,24.26
2022-07-27T11:19:01.996Z,24.34
2022-07-27T11:21:37.455Z,23.78
2022-07-27T11:24:17.687Z,23.79
2022-07-27T11:26:52.314Z,23.93
2022-07-27T11:29:26.205Z,24.29
2022-07-27T11:32:01.205Z,24.04
2022-07-27T11:34:37.296Z,23.58
2022-07-27T11:37:19.716Z,23.11
2022-07-27T11:40:03.297Z,22.85
2022-07-27T11:42:47.179Z,23.14
2022-07-27T11:45:33.432Z,23.44
2022-07-27T11:48:10.045Z,23.31
2022-07-27T11:50:59.853Z,23.05
2022-07-27T11:53:32.958Z,22.49
2022-07-27T11:56:08.101Z,23.02
2022-07-27T11:59:04.916Z,23.03
2022-07-27T12:01:39.080Z,22.70
2022-07-27T12:04:22.656Z,22.68
2022-07-27T12:07:08.388Z,22.78
2022-07-27T12:09:44.636Z,23.00
2022-07-27T12:12:19.382Z,22.75
2022-07-27T12:14:54.612Z,22.33
2022-07-27T12:17:35.256Z,22.36
2022-07-27T12:20:10.834Z,22.60
2022-07-27T12:22:46.869Z,22.43
2022-07-27T12:25:33.299Z,22.26
2022-07-27T12:28:17.429Z,22.29
2022-07-27T12:30:54.780Z,21.77
2022-07-27T12:33:33.014Z,21.80
2022-07-27T12:36:08.354Z,21.66
2022-07-27T12:38:46.393Z,21.79
2022-07-27T12:41:30.907Z,21.91
2022-07-27T12:44:12.288Z,21.29
2022-07-27T12:47:01.796Z,21.67
2022-07-27T12:49:36.593Z,21.75
2022-07-27T12:52:11.431Z,20.97
2022-07-27T12:54:44.242Z,20.51
2022-07-27T12:57:28.697Z,20.93
2022-07-27T13:00:15.665Z,21.34
2022-07-27T13:02:48.741Z,21.23
2022-07-27T13:05:22.094Z,21.27
2022-07-27T13:07:55.329Z,21.20
2022-07-27T13:10:30.562Z,21.33
2022-07-27T13:13:08.852Z,20.99
2022-07-27T13:15:41.220Z,20.31
2022-07-27T13:18:13.784Z,20.63
2022-07-27T13:20:48.683Z,19.73
2022-07-27T13:23:21.773Z,19.00
2022-07-27T13:25:54.555Z,18.95
2022-07-27T13:28:30.623Z,19.12
2022-07-27T13:31:03.408Z,18.97
2022-07-27T13:33:38.510Z,18.53
2022-07-27T13:36:13.834Z,19.01
2022-07-27T13:38:46.711Z,19.26
2022-07-27T13:41:19.547Z,18.39
2022-07-27T13:43:52.379Z,17.48
2022-07-27T13:46:25.095Z,17.70
2022-07-27T13:48:59.240Z,17.84
2022-07-27T13:51:34.542Z,17.77
2022-07-27T13:54:07.380Z,17.41
2022-07-27T13:56:42.068Z,17.57
2022-07-27T13:59:15.287Z,17.16
2022-07-27T14:01:52.727Z,17.75
2022-07-27T14:04:29.448Z,17.47
2022-07-27T14:07:08.056Z,16.67
2022-07-27T14:09:58.142Z,17.40
2022-07-27T14:12:30.988Z,17.34
2022-07-27T14:15:10.351Z,17.42
2022-07-27T14:17:45.522Z,17.23
2022-07-27T14:20:18.472Z,17.01
2022-07-27T14:22:51.312Z,17.14
2022-07-27T14:25:26.545Z,17.98
2022-07-27T14:28:01.318Z,18.01
2022-07-27T14:30:33.694Z,17.72
2022-07-27T14:33:06.189Z,17.59
2022-07-27T14:35:40.957Z,17.60
2022-07-27T14:38:14.457Z,17.47
2022-07-27T14:41:02.439Z,17.31
2022-07-27T14:43:34.963Z,16.94
2022-07-27T14:46:07.536Z,16.51
2022-07-27T14:49:05.023Z,16.07
2022-07-27T14:51:32.377Z,16.20
2022-07-27T14:54:07.221Z,15.94
2022-07-27T14:56:39.628Z,15.95
2022-07-27T14:59:12.308Z,15.80
2022-07-27T15:01:45.535Z,15.63
2022-07-27T15:04:18.085Z,15.56
2022-07-27T15:06:51.316Z,15.24
2022-07-27T15:09:27.243Z,15.25
2022-07-27T15:12:00.479Z,14.93
2022-07-27T15:14:32.897Z,14.82
2022-07-27T15:17:08.135Z,14.93
2022-07-27T15:19:40.886Z,14.95
2022-07-27T15:22:17.341Z,14.78
2022-07-27T15:24:54.096Z,14.66
2022-07-27T15:27:26.670Z,14.75
2022-07-27T15:29:59.158Z,14.89
2022-07-27T15:32:32.178Z,14.66
2022-07-27T15:35:07.165Z,14.73
2022-07-27T15:37:39.562Z,14.65
2022-07-27T15:40:31.264Z,14.92
2022-07-27T15:43:03.787Z,15.52
2022-07-27T15:45:38.901Z,16.02
2022-07-27T15:48:19.662Z,15.96
2022-07-27T15:50:54.841Z,16.01
2022-07-27T15:53:28.880Z,16.46
2022-07-27T15:56:03.904Z,16.61
2022-07-27T15:58:36.353Z,17.04
2022-07-27T16:01:12.199Z,17.18
2022-07-27T16:03:45.142Z,17.34
2022-07-27T16:06:21.123Z,17.93
2022-07-27T16:08:54.286Z,18.25
2022-07-27T16:11:26.661Z,18.11
2022-07-27T16:13:59.164Z,18.59
2022-07-27T16:16:34.084Z,18.75
2022-07-27T16:19:12.831Z,18.99
2022-07-27T16:21:53.800Z,19.25
2022-07-27T16:24:28.815Z,19.29
2022-07-27T16:27:05.481Z,19.33
2022-07-27T16:29:38.581Z,19.75
2022-07-27T16:32:12.441Z,19.47
2022-07-27T16:34:47.480Z,19.60
2022-07-27T16:37:20.049Z,19.67
2022-07-27T16:39:54.033Z,19.68
2022-07-27T16:42:28.989Z,19.74
2022-07-27T16:45:01.560Z,20.02
2022-07-27T16:47:34.108Z,20.32
2022-07-27T16:50:08.907Z,20.37
2022-07-27T16:52:46.808Z,20.50
2022-07-27T16:55:22.637Z,20.81
2022-07-27T16:58:03.479Z,21.01
2022-07-27T17:00:38.788Z,21.30
2022-07-27T17:03:13.160Z,21.48
2022-07-27T17:05:45.478Z,21.64
2022-07-27T17:08:18.328Z,22.06
2022-07-27T17:10:51.320Z,22.17
2022-07-27T17:13:23.878Z,22.46
2022-07-27T17:16:13.592Z,22.71
2022-07-27T17:18:46.291Z,22.80
2022-07-27T17:21:24.999Z,22.97
2022-07-27T17:23:57.393Z,23.09
2022-07-27T17:26:33.187Z,23.42
2022-07-27T17:29:06.472Z,23.47
2022-07-27T17:31:39.302Z,23.69
2022-07-27T17:34:11.824Z,23.66
2022-07-27T17:36:44.212Z,23.87
2022-07-27T17:39:17.356Z,23.97
2022-07-27T17:41:53.124Z,24.46
2022-07-27T17:44:26.871Z,24.54
2022-07-27T17:47:01.224Z,24.67
2022-07-27T17:49:33.908Z,24.77
2022-07-27T17:52:08.558Z,25.17
2022-07-27T17:54:41.411Z,25.37
2022-07-27T17:57:13.921Z,25.41
2022-07-27T17:59:46.656Z,25.88
2022-07-27T18:02:19.873Z,25.99
2022-07-27T18:04:52.536Z,26.27
2022-07-27T18:07:25.015Z,26.38
2022-07-27T18:09:58.522Z,26.50
2022-07-27T18:12:31.080Z,26.94
2022-07-27T18:15:20.905Z,26.93
2022-07-27T18:17:53.542Z,27.45
2022-07-27T18:20:27.624Z,27.26
2022-07-27T18:23:10.651Z,27.71
2022-07-27T18:26:07.297Z,27.82
2022-07-27T18:28:54.707Z,28.08
2022-07-27T18:31:27.267Z,28.10
2022-07-27T18:34:02.526Z,28.29
2022-07-27T18:37:18.795Z,28.60
2022-07-27T18:40:18.603Z,29.11
2022-07-27T18:42:53.046Z,29.33
2022-07-27T18:45:34.185Z,29.61
2022-07-27T18:48:11.757Z,29.71
2022-07-27T18:50:44.402Z,29.79
2022-07-27T18:53:16.882Z,30.17
2022-07-27T18:55:54.044Z,30.02
2022-07-27T18:58:29.024Z,30.35
2022-07-27T19:01:01.846Z,30.56
2022-07-27T19:03:34.485Z,30.70
2022-07-27T19:06:06.970Z,30.69
2022-07-27T19:08:41.638Z,30.79
2022-07-27T19:11:15.245Z,31.01
2022-07-27T19:13:55.053Z,31.18
2022-07-27T19:16:27.829Z,31.34
2022-07-27T19:19:00.167Z,31.36
2022-07-27T19:21:32.774Z,31.59
2022-07-27T19:24:05.558Z,31.65
2022-07-27T19:26:39.714Z,31.87
2022-07-27T19:29:17.394Z,31.82
2022-07-27T19:31:50.311Z,32.27
2022-07-27T19:34:22.957Z,32.19
2022-07-27T19:36:55.510Z,32.16
2022-07-27T19:39:27.858Z,32.50
2022-07-27T19:42:21.797Z,32.54
2022-07-27T19:45:01.839Z,32.94
2022-07-27T19:47:42.123Z,32.84
2022-07-27T19:50:14.811Z,32.96
2022-07-27T19:52:47.465Z,32.93
2022-07-27T19:55:19.843Z,33.20
2022-07-27T19:57:52.442Z,33.32
2022-07-27T20:00:28.092Z,33.18
2022-07-27T20:03:04.317Z,33.26
2022-07-27T20:05:39.823Z,33.38
2022-07-27T20:08:12.636Z,33.42
2022-07-27T20:10:47.853Z,33.23
2022-07-27T20:13:21.280Z,33.61
2022-07-27T20:15:54.254Z,33.68
2022-07-27T20:18:27.732Z,33.78
2022-07-27T20:21:00.448Z,33.72
2022-07-27T20:23:33.063Z,33.84
2022-07-27T20:26:05.402Z,33.80
2022-07-27T20:29:04.739Z,33.89
2022-07-27T20:31:38.771Z,34.27
2022-07-27T20:34:12.769Z,34.40
2022-07-27T20:36:45.264Z,34.33
2022-07-27T20:39:17.985Z,34.67
2022-07-27T20:41:53.550Z,34.93
2022-07-27T20:44:28.581Z,34.80
2022-07-27T20:47:01.311Z,35.06
2022-07-27T20:49:34.560Z,35.50
2022-07-27T20:52:08.850Z,35.97
2022-07-27T20:54:43.503Z,36.33
2022-07-27T20:57:16.024Z,36.74
2022-07-27T20:59:51.082Z,37.04
2022-07-27T21:02:26.109Z,37.36
2022-07-27T21:05:01.143Z,37.43
2022-07-27T21:07:33.474Z,37.91
2022-07-27T21:10:07.012Z,38.07
2022-07-27T21:12:39.384Z,38.44
2022-07-27T21:15:13.803Z,38.53
2022-07-27T21:17:48.558Z,38.76
2022-07-27T21:20:21.209Z,38.95
2022-07-27T21:23:10.729Z,39.27
2022-07-27T21:25:47.487Z,39.29
2022-07-27T21:28:20.038Z,39.74
2022-07-27T21:30:57.400Z,39.99
2022-07-27T21:33:29.920Z,40.45
2022-07-27T21:36:04.883Z,40.63
2022-07-27T21:38:39.773Z,40.50
2022-07-27T21:41:17.871Z,40.56
2022-07-27T21:43:52.483Z,40.56
2022-07-27T21:46:25.035Z,40.67
2022-07-27T21:49:00.693Z,40.81
2022-07-27T21:51:33.412Z,41.13
2022-07-27T21:54:05.928Z,41.08
2022-07-27T21:56:50.550Z,41.44
2022-07-27T21:59:23.522Z,41.71
2022-07-27T22:05:42.229Z,42.02
2022-07-27T22:08:15.132Z,42.50
2022-07-27T22:10:49.187Z,42.52
2022-07-27T22:13:21.827Z,42.64
2022-07-27T22:16:12.888Z,42.88
2022-07-27T22:19:00.770Z,43.05
2022-07-27T22:21:36.566Z,42.88
2022-07-27T22:24:11.378Z,43.35
2022-07-27T22:26:46.031Z,43.56
2022-07-27T22:29:19.387Z,43.49
2022-07-27T22:31:52.880Z,43.54
2022-07-27T22:34:26.582Z,43.76
2022-07-27T22:36:58.967Z,43.99
2022-07-27T22:39:33.063Z,44.17
2022-07-27T22:42:05.657Z,44.52
2022-07-27T22:44:38.796Z,44.61
2022-07-27T22:47:12.397Z,44.91
2022-07-27T22:49:46.621Z,44.77
2022-07-27T22:52:18.997Z,45.12
2022-07-27T22:54:51.506Z,45.41
2022-07-27T22:57:26.730Z,45.61
2022-07-27T22:59:59.522Z,45.57
2022-07-27T23:02:34.809Z,45.63
2022-07-27T23:05:18.990Z,45.88
2022-07-27T23:07:51.769Z,46.17
2022-07-27T23:10:42.340Z,46.20
2022-07-27T23:13:20.287Z,46.29
2022-07-27T23:15:55.519Z,46.44
2022-07-27T23:18:37.804Z,46.67
2022-07-27T23:21:10.554Z,46.63
2022-07-27T23:23:45.682Z,46.67
2022-07-27T23:26:27.637Z,46.99
2022-07-27T23:29:00.033Z,46.78
2022-07-27T23:31:33.623Z,46.96
2022-07-27T23:34:06.056Z,47.05
2022-07-27T23:36:38.770Z,47.05
2022-07-27T23:39:13.960Z,47.25
2022-07-27T23:41:50.145Z,47.17
2022-07-27T23:44:22.838Z,47.19
2022-07-27T23:46:58.245Z,47.21
2022-07-27T23:49:30.918Z,47.29
2022-07-27T23:52:05.344Z,47.57
2022-07-27T23:54:38.104Z,47.48
2022-07-27T23:57:10.622Z,47.64
2022-07-27T23:59:43.131Z,47.59
